sensor_id;sensor_type;location;lat;lon;timestamp;pressure;altitude;pressure_sealevel;temperature;humidity
4528;BME280;62320;51.520;6.818;2022-08-19T00:03:40;100831.72;;;19.76;79.35
4528;BME280;62320;51.520;6.818;2022-08-19T00:08:41;100824.94;;;19.71;79.75
4528;BME280;62320;51.520;6.818;2022-08-19T00:13:43;100836.97;;;19.76;81.71
4528;BME280;62320;51.520;6.818;2022-08-19T00:18:44;100813.28;;;19.55;80.40
4528;BME280;62320;51.520;6.818;2022-08-19T00:23:46;100819.94;;;19.40;80.23
4528;BME280;62320;51.520;6.818;2022-08-19T00:28:47;100827.28;;;19.55;78.79
4528;BME280;62320;51.520;6.818;2022-08-19T00:33:49;100839.09;;;19.42;79.44
4528;BME280;62320;51.520;6.818;2022-08-19T00:38:51;100834.41;;;19.26;82.61
4528;BME280;62320;51.520;6.818;2022-08-19T00:44:18;100825.19;;;19.65;74.37
4528;BME280;62320;51.520;6.818;2022-08-19T00:49:34;100820.97;;;19.35;79.34
4528;BME280;62320;51.520;6.818;2022-08-19T00:54:38;100820.00;;;19.39;76.80
4528;BME280;62320;51.520;6.818;2022-08-19T00:59:42;100811.16;;;19.41;75.50
4528;BME280;62320;51.520;6.818;2022-08-19T01:05:06;100829.31;;;19.21;80.99
4528;BME280;62320;51.520;6.818;2022-08-19T01:10:12;100786.81;;;18.87;80.61
4528;BME280;62320;51.520;6.818;2022-08-19T01:15:23;100818.19;;;18.90;82.13
4528;BME280;62320;51.520;6.818;2022-08-19T01:20:26;100816.69;;;19.07;79.62
4528;BME280;62320;51.520;6.818;2022-08-19T01:25:32;100817.16;;;18.94;84.06
4528;BME280;62320;51.520;6.818;2022-08-19T01:30:39;100794.63;;;18.88;81.78
4528;BME280;62320;51.520;6.818;2022-08-19T01:35:45;100827.66;;;18.92;81.71
4528;BME280;62320;51.520;6.818;2022-08-19T01:40:47;100809.31;;;18.92;78.66
4528;BME280;62320;51.520;6.818;2022-08-19T01:45:48;100811.09;;;18.66;82.56
4528;BME280;62320;51.520;6.818;2022-08-19T01:50:50;100807.53;;;18.68;79.97
4528;BME280;62320;51.520;6.818;2022-08-19T01:55:51;100825.28;;;18.59;83.26
4528;BME280;62320;51.520;6.818;2022-08-19T02:00:53;100815.03;;;18.52;83.06
4528;BME280;62320;51.520;6.818;2022-08-19T02:05:59;100828.25;;;18.76;81.19
4528;BME280;62320;51.520;6.818;2022-08-19T02:11:01;100817.84;;;18.73;77.33
4528;BME280;62320;51.520;6.818;2022-08-19T02:16:03;100822.34;;;18.69;83.66
4528;BME280;62320;51.520;6.818;2022-08-19T02:21:04;100816.88;;;18.49;83.92
4528;BME280;62320;51.520;6.818;2022-08-19T02:26:06;100823.16;;;18.71;77.52
4528;BME280;62320;51.520;6.818;2022-08-19T02:31:10;100826.09;;;18.61;82.14
4528;BME280;62320;51.520;6.818;2022-08-19T02:36:13;100826.31;;;18.55;82.29
4528;BME280;62320;51.520;6.818;2022-08-19T02:41:28;100828.59;;;18.36;83.27
4528;BME280;62320;51.520;6.818;2022-08-19T02:46:32;100836.84;;;18.53;80.49
4528;BME280;62320;51.520;6.818;2022-08-19T02:51:37;100828.72;;;18.33;84.53
4528;BME280;62320;51.520;6.818;2022-08-19T02:56:41;100825.81;;;18.42;77.85
4528;BME280;62320;51.520;6.818;2022-08-19T03:01:43;100833.25;;;18.56;75.56
4528;BME280;62320;51.520;6.818;2022-08-19T03:06:46;100842.25;;;18.47;78.91
4528;BME280;62320;51.520;6.818;2022-08-19T03:11:48;100816.84;;;18.21;80.93
4528;BME280;62320;51.520;6.818;2022-08-19T03:16:53;100838.59;;;18.23;79.29
4528;BME280;62320;51.520;6.818;2022-08-19T03:21:54;100825.25;;;18.31;78.94
4528;BME280;62320;51.520;6.818;2022-08-19T03:26:57;100819.56;;;18.18;83.48
4528;BME280;62320;51.520;6.818;2022-08-19T03:32:00;100829.53;;;18.06;82.69
4528;BME280;62320;51.520;6.818;2022-08-19T03:37:08;100833.72;;;18.11;84.22
4528;BME280;62320;51.520;6.818;2022-08-19T03:42:11;100829.13;;;18.19;82.05
4528;BME280;62320;51.520;6.818;2022-08-19T03:47:32;100829.28;;;18.13;78.04
4528;BME280;62320;51.520;6.818;2022-08-19T03:52:34;100837.16;;;18.13;85.28
4528;BME280;62320;51.520;6.818;2022-08-19T03:57:37;100827.22;;;17.95;82.98
4528;BME280;62320;51.520;6.818;2022-08-19T04:02:38;100829.63;;;18.03;82.24
4528;BME280;62320;51.520;6.818;2022-08-19T04:07:40;100822.63;;;18.03;77.23
4528;BME280;62320;51.520;6.818;2022-08-19T04:12:41;100822.72;;;18.00;80.09
4528;BME280;62320;51.520;6.818;2022-08-19T04:17:43;100836.34;;;18.11;78.44
4528;BME280;62320;51.520;6.818;2022-08-19T04:22:44;100832.97;;;18.08;79.90
4528;BME280;62320;51.520;6.818;2022-08-19T04:27:46;100821.84;;;18.01;81.29
4528;BME280;62320;51.520;6.818;2022-08-19T04:32:48;100832.59;;;17.91;82.60
4528;BME280;62320;51.520;6.818;2022-08-19T04:37:50;100804.28;;;17.75;85.27
4528;BME280;62320;51.520;6.818;2022-08-19T04:42:51;100825.56;;;17.93;80.11
4528;BME280;62320;51.520;6.818;2022-08-19T04:47:55;100814.53;;;17.81;83.06
4528;BME280;62320;51.520;6.818;2022-08-19T04:53:18;100836.00;;;17.93;80.01
4528;BME280;62320;51.520;6.818;2022-08-19T04:58:19;100854.50;;;17.87;83.60
4528;BME280;62320;51.520;6.818;2022-08-19T05:03:21;100846.78;;;17.82;86.86
4528;BME280;62320;51.520;6.818;2022-08-19T05:08:22;100858.53;;;17.98;82.62
4528;BME280;62320;51.520;6.818;2022-08-19T05:13:31;100877.53;;;18.05;79.00
4528;BME280;62320;51.520;6.818;2022-08-19T05:18:33;100876.28;;;18.18;78.63
4528;BME280;62320;51.520;6.818;2022-08-19T05:23:53;100876.13;;;18.22;77.17
4528;BME280;62320;51.520;6.818;2022-08-19T05:28:55;100886.31;;;18.33;82.10
4528;BME280;62320;51.520;6.818;2022-08-19T05:33:56;100884.31;;;18.41;78.74
4528;BME280;62320;51.520;6.818;2022-08-19T05:38:59;100867.72;;;18.40;81.97
4528;BME280;62320;51.520;6.818;2022-08-19T05:44:03;100886.34;;;18.61;80.80
4528;BME280;62320;51.520;6.818;2022-08-19T05:49:07;100888.66;;;18.70;78.68
4528;BME280;62320;51.520;6.818;2022-08-19T05:54:09;100895.16;;;18.86;79.59
4528;BME280;62320;51.520;6.818;2022-08-19T05:59:12;100903.66;;;18.92;76.01
4528;BME280;62320;51.520;6.818;2022-08-19T06:04:14;100895.25;;;19.09;78.02
4528;BME280;62320;51.520;6.818;2022-08-19T06:09:15;100894.88;;;19.21;76.06
4528;BME280;62320;51.520;6.818;2022-08-19T06:14:20;100898.00;;;19.32;75.24
4528;BME280;62320;51.520;6.818;2022-08-19T06:19:29;100887.13;;;19.44;74.92
4528;BME280;62320;51.520;6.818;2022-08-19T06:24:34;100877.84;;;19.59;77.33
4528;BME280;62320;51.520;6.818;2022-08-19T06:29:36;100880.94;;;19.70;77.81
4528;BME280;62320;51.520;6.818;2022-08-19T06:34:37;100888.44;;;19.80;74.74
4528;BME280;62320;51.520;6.818;2022-08-19T06:39:41;100886.91;;;19.98;75.66
4528;BME280;62320;51.520;6.818;2022-08-19T06:44:45;100873.75;;;20.23;78.14
4528;BME280;62320;51.520;6.818;2022-08-19T06:49:53;100880.69;;;20.47;75.76
4528;BME280;62320;51.520;6.818;2022-08-19T06:55:01;100885.19;;;20.67;76.78
4528;BME280;62320;51.520;6.818;2022-08-19T07:00:07;100883.81;;;21.00;78.39
4528;BME280;62320;51.520;6.818;2022-08-19T07:05:13;100870.72;;;21.20;76.85
4528;BME280;62320;51.520;6.818;2022-08-19T07:10:14;100882.44;;;21.33;75.41
4528;BME280;62320;51.520;6.818;2022-08-19T07:15:17;100895.94;;;21.66;73.62
4528;BME280;62320;51.520;6.818;2022-08-19T07:20:19;100902.00;;;21.88;74.27
4528;BME280;62320;51.520;6.818;2022-08-19T07:25:20;100898.63;;;22.05;74.16
4528;BME280;62320;51.520;6.818;2022-08-19T07:30:32;100913.88;;;22.17;73.72
4528;BME280;62320;51.520;6.818;2022-08-19T07:35:36;100899.50;;;22.24;73.65
4528;BME280;62320;51.520;6.818;2022-08-19T07:40:38;100921.88;;;22.52;74.71
4528;BME280;62320;51.520;6.818;2022-08-19T07:45:41;100921.50;;;22.79;75.47
4528;BME280;62320;51.520;6.818;2022-08-19T07:50:43;100929.19;;;23.02;74.34
4528;BME280;62320;51.520;6.818;2022-08-19T07:55:45;100940.31;;;23.25;74.83
4528;BME280;62320;51.520;6.818;2022-08-19T08:00:48;100934.28;;;23.23;72.48
4528;BME280;62320;51.520;6.818;2022-08-19T08:05:49;100947.66;;;23.55;74.09
4528;BME280;62320;51.520;6.818;2022-08-19T08:11:11;100955.66;;;23.70;72.55
4528;BME280;62320;51.520;6.818;2022-08-19T08:16:15;100970.66;;;23.87;72.03
4528;BME280;62320;51.520;6.818;2022-08-19T08:21:17;100956.91;;;23.80;71.76
4528;BME280;62320;51.520;6.818;2022-08-19T08:26:18;100968.44;;;23.95;70.78
4528;BME280;62320;51.520;6.818;2022-08-19T08:31:20;100979.88;;;23.95;70.91
4528;BME280;62320;51.520;6.818;2022-08-19T08:36:21;100974.69;;;24.11;70.80
4528;BME280;62320;51.520;6.818;2022-08-19T08:46:55;100984.41;;;24.43;69.77
4528;BME280;62320;51.520;6.818;2022-08-19T08:52:16;100968.09;;;24.35;68.45
4528;BME280;62320;51.520;6.818;2022-08-19T08:57:26;100968.28;;;24.48;68.24
4528;BME280;62320;51.520;6.818;2022-08-19T09:02:37;100955.56;;;24.39;68.20
4528;BME280;62320;51.520;6.818;2022-08-19T09:08:33;100971.84;;;24.47;64.87
4528;BME280;62320;51.520;6.818;2022-08-19T09:13:38;100972.72;;;24.47;67.95
4528;BME280;62320;51.520;6.818;2022-08-19T09:18:50;100972.72;;;24.47;66.78
4528;BME280;62320;51.520;6.818;2022-08-19T09:23:54;100962.66;;;24.54;67.58
4528;BME280;62320;51.520;6.818;2022-08-19T09:28:56;100967.44;;;24.63;67.32
4528;BME280;62320;51.520;6.818;2022-08-19T09:33:59;100959.75;;;24.75;66.32
4528;BME280;62320;51.520;6.818;2022-08-19T09:39:03;100959.91;;;24.88;66.49
4528;BME280;62320;51.520;6.818;2022-08-19T09:44:16;100950.59;;;24.97;66.34
4528;BME280;62320;51.520;6.818;2022-08-19T09:49:19;100956.22;;;25.06;65.93
4528;BME280;62320;51.520;6.818;2022-08-19T09:54:23;100953.13;;;25.14;65.10
4528;BME280;62320;51.520;6.818;2022-08-19T09:59:26;100959.44;;;25.27;65.24
4528;BME280;62320;51.520;6.818;2022-08-19T10:04:28;100966.06;;;25.34;65.41
4528;BME280;62320;51.520;6.818;2022-08-19T10:09:49;100949.44;;;25.32;64.90
4528;BME280;62320;51.520;6.818;2022-08-19T10:14:51;100951.81;;;25.36;64.24
4528;BME280;62320;51.520;6.818;2022-08-19T10:19:54;100960.94;;;25.46;63.70
4528;BME280;62320;51.520;6.818;2022-08-19T10:24:56;100941.22;;;25.36;63.53
4528;BME280;62320;51.520;6.818;2022-08-19T10:29:58;100942.94;;;25.53;63.47
4528;BME280;62320;51.520;6.818;2022-08-19T10:35:02;100946.72;;;25.63;62.37
4528;BME280;62320;51.520;6.818;2022-08-19T10:40:08;100950.06;;;25.67;63.27
4528;BME280;62320;51.520;6.818;2022-08-19T10:45:11;100928.72;;;25.54;62.92
4528;BME280;62320;51.520;6.818;2022-08-19T10:50:13;100931.50;;;25.67;61.69
4528;BME280;62320;51.520;6.818;2022-08-19T10:55:38;100946.16;;;25.72;62.85
4528;BME280;62320;51.520;6.818;2022-08-19T11:00:58;100937.38;;;25.72;62.30
4528;BME280;62320;51.520;6.818;2022-08-19T11:06:02;100935.84;;;25.68;61.06
4528;BME280;62320;51.520;6.818;2022-08-19T11:11:06;100936.44;;;25.73;61.54
4528;BME280;62320;51.520;6.818;2022-08-19T11:16:17;100934.53;;;25.75;61.85
4528;BME280;62320;51.520;6.818;2022-08-19T11:21:23;100928.66;;;25.70;60.91
4528;BME280;62320;51.520;6.818;2022-08-19T11:26:25;100934.72;;;25.72;62.02
4528;BME280;62320;51.520;6.818;2022-08-19T11:31:30;100929.13;;;25.76;61.00
4528;BME280;62320;51.520;6.818;2022-08-19T11:36:37;100926.31;;;25.79;60.50
4528;BME280;62320;51.520;6.818;2022-08-19T11:41:40;100923.00;;;25.76;59.07
4528;BME280;62320;51.520;6.818;2022-08-19T11:46:43;100923.94;;;25.75;58.59
4528;BME280;62320;51.520;6.818;2022-08-19T11:51:48;100923.28;;;25.71;59.48
4528;BME280;62320;51.520;6.818;2022-08-19T11:56:51;100920.63;;;25.71;59.58
4528;BME280;62320;51.520;6.818;2022-08-19T12:01:52;100909.94;;;25.73;58.60
4528;BME280;62320;51.520;6.818;2022-08-19T12:06:54;100912.00;;;25.68;59.48
4528;BME280;62320;51.520;6.818;2022-08-19T12:11:56;100916.00;;;25.75;58.87
4528;BME280;62320;51.520;6.818;2022-08-19T12:16:57;100913.94;;;25.80;58.82
4528;BME280;62320;51.520;6.818;2022-08-19T12:22:00;100891.97;;;25.78;56.46
4528;BME280;62320;51.520;6.818;2022-08-19T12:27:03;100886.47;;;25.81;58.56
4528;BME280;62320;51.520;6.818;2022-08-19T12:32:10;100901.72;;;25.91;55.97
4528;BME280;62320;51.520;6.818;2022-08-19T12:37:12;100873.22;;;25.95;57.16
4528;BME280;62320;51.520;6.818;2022-08-19T12:42:15;100897.38;;;26.04;56.98
4528;BME280;62320;51.520;6.818;2022-08-19T12:47:16;100905.03;;;26.09;52.79
4528;BME280;62320;51.520;6.818;2022-08-19T12:52:19;100865.50;;;25.92;55.60
4528;BME280;62320;51.520;6.818;2022-08-19T12:57:26;100897.88;;;26.11;55.34
4528;BME280;62320;51.520;6.818;2022-08-19T13:02:33;100891.97;;;26.06;54.41
4528;BME280;62320;51.520;6.818;2022-08-19T13:07:40;100886.41;;;26.10;55.05
4528;BME280;62320;51.520;6.818;2022-08-19T13:12:43;100891.44;;;26.15;55.70
4528;BME280;62320;51.520;6.818;2022-08-19T13:17:45;100873.09;;;26.12;55.21
4528;BME280;62320;51.520;6.818;2022-08-19T13:22:48;100866.53;;;26.17;55.81
4528;BME280;62320;51.520;6.818;2022-08-19T13:27:50;100881.09;;;26.25;54.84
4528;BME280;62320;51.520;6.818;2022-08-19T13:32:51;100865.22;;;26.10;53.21
4528;BME280;62320;51.520;6.818;2022-08-19T13:38:15;100865.19;;;26.25;54.16
4528;BME280;62320;51.520;6.818;2022-08-19T13:43:19;100862.94;;;26.18;51.62
4528;BME280;62320;51.520;6.818;2022-08-19T13:48:24;100857.53;;;26.20;54.98
4528;BME280;62320;51.520;6.818;2022-08-19T13:53:28;100842.22;;;26.11;54.28
4528;BME280;62320;51.520;6.818;2022-08-19T13:58:33;100843.34;;;26.21;53.74
4528;BME280;62320;51.520;6.818;2022-08-19T14:03:35;100843.81;;;26.28;52.19
4528;BME280;62320;51.520;6.818;2022-08-19T14:08:36;100834.69;;;26.32;52.14
4528;BME280;62320;51.520;6.818;2022-08-19T14:13:46;100838.88;;;26.22;53.45
4528;BME280;62320;51.520;6.818;2022-08-19T14:18:47;100833.94;;;26.30;53.24
4528;BME280;62320;51.520;6.818;2022-08-19T14:23:49;100839.25;;;26.30;54.09
4528;BME280;62320;51.520;6.818;2022-08-19T14:28:51;100835.56;;;26.32;54.43
4528;BME280;62320;51.520;6.818;2022-08-19T14:33:53;100824.19;;;26.30;53.82
4528;BME280;62320;51.520;6.818;2022-08-19T14:38:55;100841.13;;;26.42;54.43
4528;BME280;62320;51.520;6.818;2022-08-19T14:43:58;100839.22;;;26.44;54.68
4528;BME280;62320;51.520;6.818;2022-08-19T14:49:01;100825.09;;;26.43;54.31
4528;BME280;62320;51.520;6.818;2022-08-19T14:54:09;100834.75;;;26.44;52.13
4528;BME280;62320;51.520;6.818;2022-08-19T14:59:11;100849.97;;;26.55;53.78
4528;BME280;62320;51.520;6.818;2022-08-19T15:04:13;100852.06;;;26.50;53.91
4528;BME280;62320;51.520;6.818;2022-08-19T15:09:14;100858.81;;;26.55;50.61
4528;BME280;62320;51.520;6.818;2022-08-19T15:14:15;100854.31;;;26.56;53.70
4528;BME280;62320;51.520;6.818;2022-08-19T15:19:17;100863.81;;;26.60;53.82
4528;BME280;62320;51.520;6.818;2022-08-19T15:24:19;100867.81;;;26.53;53.27
4528;BME280;62320;51.520;6.818;2022-08-19T15:29:21;100885.13;;;26.58;52.10
4528;BME280;62320;51.520;6.818;2022-08-19T15:34:25;100886.41;;;26.65;52.87
4528;BME280;62320;51.520;6.818;2022-08-19T15:39:26;100887.97;;;26.55;53.21
4528;BME280;62320;51.520;6.818;2022-08-19T15:44:28;100879.84;;;26.44;51.87
4528;BME280;62320;51.520;6.818;2022-08-19T15:49:30;100893.59;;;26.51;51.72
4528;BME280;62320;51.520;6.818;2022-08-19T15:54:32;100889.03;;;26.53;52.24
4528;BME280;62320;51.520;6.818;2022-08-19T15:59:35;100894.34;;;26.53;53.36
4528;BME280;62320;51.520;6.818;2022-08-19T16:05:00;100904.56;;;26.45;52.90
4528;BME280;62320;51.520;6.818;2022-08-19T16:10:20;100888.06;;;26.40;53.22
4528;BME280;62320;51.520;6.818;2022-08-19T16:15:29;100900.28;;;26.42;53.37
4528;BME280;62320;51.520;6.818;2022-08-19T16:20:31;100900.88;;;26.33;54.60
4528;BME280;62320;51.520;6.818;2022-08-19T16:25:35;100893.78;;;26.34;54.12
4528;BME280;62320;51.520;6.818;2022-08-19T16:30:39;100892.75;;;26.36;53.46
4528;BME280;62320;51.520;6.818;2022-08-19T16:35:41;100901.56;;;26.37;53.77
4528;BME280;62320;51.520;6.818;2022-08-19T16:40:42;100904.38;;;26.34;53.48
4528;BME280;62320;51.520;6.818;2022-08-19T16:45:48;100902.78;;;26.31;53.15
4528;BME280;62320;51.520;6.818;2022-08-19T16:50:53;100889.53;;;26.17;54.93
4528;BME280;62320;51.520;6.818;2022-08-19T16:55:54;100905.66;;;26.28;54.64
4528;BME280;62320;51.520;6.818;2022-08-19T17:00:58;100909.22;;;26.27;54.57
4528;BME280;62320;51.520;6.818;2022-08-19T17:06:25;100917.47;;;26.23;54.49
4528;BME280;62320;51.520;6.818;2022-08-19T17:11:29;100912.44;;;26.32;53.87
4528;BME280;62320;51.520;6.818;2022-08-19T17:16:34;100894.84;;;26.17;54.86
4528;BME280;62320;51.520;6.818;2022-08-19T17:21:37;100895.91;;;26.14;55.25
4528;BME280;62320;51.520;6.818;2022-08-19T17:26:39;100882.13;;;26.08;55.33
4528;BME280;62320;51.520;6.818;2022-08-19T17:31:41;100894.06;;;26.15;55.00
4528;BME280;62320;51.520;6.818;2022-08-19T17:36:43;100876.34;;;26.01;55.48
4528;BME280;62320;51.520;6.818;2022-08-19T17:41:45;100886.19;;;25.99;55.82
4528;BME280;62320;51.520;6.818;2022-08-19T17:46:46;100874.38;;;25.77;56.42
4528;BME280;62320;51.520;6.818;2022-08-19T17:51:48;100868.69;;;25.69;56.48
4528;BME280;62320;51.520;6.818;2022-08-19T17:56:50;100893.88;;;25.76;57.74
4528;BME280;62320;51.520;6.818;2022-08-19T18:01:51;100891.50;;;25.71;57.03
4528;BME280;62320;51.520;6.818;2022-08-19T18:06:55;100901.50;;;25.66;58.54
4528;BME280;62320;51.520;6.818;2022-08-19T18:11:57;100902.53;;;25.64;59.61
4528;BME280;62320;51.520;6.818;2022-08-19T18:17:02;100908.28;;;25.56;59.61
4528;BME280;62320;51.520;6.818;2022-08-19T18:22:06;100906.13;;;25.48;59.87
4528;BME280;62320;51.520;6.818;2022-08-19T18:27:07;100914.06;;;25.48;60.01
4528;BME280;62320;51.520;6.818;2022-08-19T18:32:10;100911.72;;;25.42;60.98
4528;BME280;62320;51.520;6.818;2022-08-19T18:37:14;100919.53;;;25.45;60.89
4528;BME280;62320;51.520;6.818;2022-08-19T18:42:16;100901.34;;;25.10;62.74
4528;BME280;62320;51.520;6.818;2022-08-19T18:47:36;100930.56;;;25.22;62.03
4528;BME280;62320;51.520;6.818;2022-08-19T18:52:57;100941.78;;;25.12;61.47
4528;BME280;62320;51.520;6.818;2022-08-19T18:57:58;100929.34;;;24.98;63.26
4528;BME280;62320;51.520;6.818;2022-08-19T19:03:00;100933.44;;;24.88;62.41
4528;BME280;62320;51.520;6.818;2022-08-19T19:08:02;100937.47;;;24.79;63.82
4528;BME280;62320;51.520;6.818;2022-08-19T19:13:04;100954.25;;;24.78;62.06
4528;BME280;62320;51.520;6.818;2022-08-19T19:18:05;100956.56;;;24.69;62.46
4528;BME280;62320;51.520;6.818;2022-08-19T19:23:07;100962.34;;;24.60;64.56
4528;BME280;62320;51.520;6.818;2022-08-19T19:28:08;100956.84;;;24.47;63.11
4528;BME280;62320;51.520;6.818;2022-08-19T19:33:16;100963.50;;;24.39;64.91
4528;BME280;62320;51.520;6.818;2022-08-19T19:38:18;100947.19;;;24.31;63.50
4528;BME280;62320;51.520;6.818;2022-08-19T19:43:19;100948.47;;;24.24;63.36
4528;BME280;62320;51.520;6.818;2022-08-19T19:48:21;100959.03;;;24.24;63.46
4528;BME280;62320;51.520;6.818;2022-08-19T19:53:25;100965.50;;;24.18;63.13
4528;BME280;62320;51.520;6.818;2022-08-19T19:58:29;100965.97;;;24.09;65.59
4528;BME280;62320;51.520;6.818;2022-08-19T20:03:33;100955.88;;;24.00;64.84
4528;BME280;62320;51.520;6.818;2022-08-19T20:08:34;100975.22;;;24.00;64.49
4528;BME280;62320;51.520;6.818;2022-08-19T20:13:55;100973.97;;;23.90;64.46
4528;BME280;62320;51.520;6.818;2022-08-19T20:18:58;100985.31;;;23.92;64.48
4528;BME280;62320;51.520;6.818;2022-08-19T20:24:02;100980.59;;;23.82;65.34
4528;BME280;62320;51.520;6.818;2022-08-19T20:29:10;100983.38;;;23.79;66.51
4528;BME280;62320;51.520;6.818;2022-08-19T20:34:32;100967.56;;;23.62;69.34
4528;BME280;62320;51.520;6.818;2022-08-19T20:39:34;100964.13;;;23.60;67.33
4528;BME280;62320;51.520;6.818;2022-08-19T20:44:35;100983.53;;;23.59;67.44
4528;BME280;62320;51.520;6.818;2022-08-19T20:49:38;100982.75;;;23.57;68.87
4528;BME280;62320;51.520;6.818;2022-08-19T20:54:39;100983.91;;;23.51;67.57
4528;BME280;62320;51.520;6.818;2022-08-19T20:59:40;100974.91;;;23.38;67.92
4528;BME280;62320;51.520;6.818;2022-08-19T21:04:42;101004.34;;;23.48;69.39
4528;BME280;62320;51.520;6.818;2022-08-19T21:09:43;100987.09;;;23.40;68.91
4528;BME280;62320;51.520;6.818;2022-08-19T21:14:45;100982.13;;;23.34;68.24
4528;BME280;62320;51.520;6.818;2022-08-19T21:19:47;100992.69;;;23.33;68.02
4528;BME280;62320;51.520;6.818;2022-08-19T21:24:48;101015.03;;;23.45;70.51
4528;BME280;62320;51.520;6.818;2022-08-19T21:29:50;100993.53;;;23.35;68.44
4528;BME280;62320;51.520;6.818;2022-08-19T21:34:51;101014.50;;;23.38;71.28
4528;BME280;62320;51.520;6.818;2022-08-19T21:39:54;101014.66;;;23.35;70.70
4528;BME280;62320;51.520;6.818;2022-08-19T21:44:55;101010.28;;;23.34;70.63
4528;BME280;62320;51.520;6.818;2022-08-19T21:49:57;101006.84;;;23.32;72.30
4528;BME280;62320;51.520;6.818;2022-08-19T21:54:58;101004.78;;;23.20;70.33
4528;BME280;62320;51.520;6.818;2022-08-19T22:00:00;101018.63;;;23.25;70.55
4528;BME280;62320;51.520;6.818;2022-08-19T22:05:02;101014.34;;;23.22;71.08
4528;BME280;62320;51.520;6.818;2022-08-19T22:10:05;101015.28;;;23.21;72.47
4528;BME280;62320;51.520;6.818;2022-08-19T22:15:09;101020.84;;;23.15;73.09
4528;BME280;62320;51.520;6.818;2022-08-19T22:20:17;101022.78;;;23.12;72.30
4528;BME280;62320;51.520;6.818;2022-08-19T22:25:22;101025.56;;;23.09;72.45
4528;BME280;62320;51.520;6.818;2022-08-19T22:30:33;101032.69;;;23.07;75.14
4528;BME280;62320;51.520;6.818;2022-08-19T22:35:36;101028.50;;;23.03;76.87
4528;BME280;62320;51.520;6.818;2022-08-19T22:40:42;101025.44;;;22.93;75.98
4528;BME280;62320;51.520;6.818;2022-08-19T22:45:45;101036.53;;;23.00;74.61
4528;BME280;62320;51.520;6.818;2022-08-19T22:50:47;101031.63;;;22.92;74.50
4528;BME280;62320;51.520;6.818;2022-08-19T22:56:09;101030.78;;;22.92;76.42
4528;BME280;62320;51.520;6.818;2022-08-19T23:01:17;101047.59;;;22.89;77.61
4528;BME280;62320;51.520;6.818;2022-08-19T23:06:31;101028.22;;;22.72;76.00
4528;BME280;62320;51.520;6.818;2022-08-19T23:11:38;101036.25;;;22.68;78.60
4528;BME280;62320;51.520;6.818;2022-08-19T23:16:42;101021.81;;;22.57;77.25
4528;BME280;62320;51.520;6.818;2022-08-19T23:21:51;101033.75;;;22.65;78.05
4528;BME280;62320;51.520;6.818;2022-08-19T23:26:53;101025.44;;;22.54;79.99
4528;BME280;62320;51.520;6.818;2022-08-19T23:32:13;101018.03;;;22.44;79.99
4528;BME280;62320;51.520;6.818;2022-08-19T23:37:16;101032.84;;;22.46;79.59
4528;BME280;62320;51.520;6.818;2022-08-19T23:42:17;101030.69;;;22.36;81.00
4528;BME280;62320;51.520;6.818;2022-08-19T23:47:20;101031.81;;;22.30;83.29
4528;BME280;62320;51.520;6.818;2022-08-19T23:52:22;101032.16;;;22.23;80.62
4528;BME280;62320;51.520;6.818;2022-08-19T23:57:24;101034.69;;;22.24;80.73
